sensor_id;sensor_type;location;lat;lon;timestamp;P1;durP1;ratioP1;P2;durP2;ratioP2
5616;SDS011;2830;50.656;7.568;2023-06-26T00:01:39;18.80;;;7.30;;
5616;SDS011;2830;50.656;7.568;2023-06-26T00:04:06;18.50;;;7.00;;
5616;SDS011;2830;50.656;7.568;2023-06-26T00:06:33;18.73;;;7.63;;
5616;SDS011;2830;50.656;7.568;2023-06-26T00:09:00;22.10;;;6.90;;
5616;SDS011;2830;50.656;7.568;2023-06-26T00:11:27;18.33;;;7.13;;
5616;SDS011;2830;50.656;7.568;2023-06-26T00:13:56;17.90;;;7.03;;
5616;SDS011;2830;50.656;7.568;2023-06-26T00:16:23;17.10;;;6.37;;
5616;SDS011;2830;50.656;7.568;2023-06-26T00:18:55;17.17;;;7.30;;
5616;SDS011;2830;50.656;7.568;2023-06-26T00:21:21;20.67;;;7.60;;
5616;SDS011;2830;50.656;7.568;2023-06-26T00:23:48;19.27;;;8.00;;
5616;SDS011;2830;50.656;7.568;2023-06-26T00:26:15;19.33;;;7.40;;
5616;SDS011;2830;50.656;7.568;2023-06-26T00:28:41;18.80;;;7.37;;
5616;SDS011;2830;50.656;7.568;2023-06-26T00:31:08;20.17;;;8.37;;
5616;SDS011;2830;50.656;7.568;2023-06-26T00:33:35;21.03;;;6.97;;
5616;SDS011;2830;50.656;7.568;2023-06-26T00:36:01;18.80;;;6.83;;
5616;SDS011;2830;50.656;7.568;2023-06-26T00:38:28;19.03;;;7.60;;
5616;SDS011;2830;50.656;7.568;2023-06-26T00:40:55;19.23;;;7.00;;
5616;SDS011;2830;50.656;7.568;2023-06-26T00:43:22;17.27;;;6.87;;
5616;SDS011;2830;50.656;7.568;2023-06-26T00:45:49;18.70;;;7.53;;
5616;SDS011;2830;50.656;7.568;2023-06-26T00:48:16;17.43;;;7.53;;
5616;SDS011;2830;50.656;7.568;2023-06-26T00:50:43;17.60;;;7.43;;
5616;SDS011;2830;50.656;7.568;2023-06-26T00:53:10;17.60;;;6.63;;
5616;SDS011;2830;50.656;7.568;2023-06-26T00:55:37;18.03;;;6.83;;
5616;SDS011;2830;50.656;7.568;2023-06-26T00:58:04;19.60;;;6.63;;
5616;SDS011;2830;50.656;7.568;2023-06-26T01:00:31;16.80;;;6.70;;
5616;SDS011;2830;50.656;7.568;2023-06-26T01:02:58;18.33;;;6.83;;
5616;SDS011;2830;50.656;7.568;2023-06-26T01:05:26;17.97;;;7.03;;
5616;SDS011;2830;50.656;7.568;2023-06-26T01:07:54;20.70;;;6.73;;
5616;SDS011;2830;50.656;7.568;2023-06-26T01:10:22;19.30;;;6.70;;
5616;SDS011;2830;50.656;7.568;2023-06-26T01:12:50;18.20;;;6.50;;
5616;SDS011;2830;50.656;7.568;2023-06-26T01:15:17;17.00;;;6.93;;
5616;SDS011;2830;50.656;7.568;2023-06-26T01:17:44;18.37;;;6.70;;
5616;SDS011;2830;50.656;7.568;2023-06-26T01:20:13;17.90;;;7.10;;
5616;SDS011;2830;50.656;7.568;2023-06-26T01:28:06;19.77;;;7.37;;
5616;SDS011;2830;50.656;7.568;2023-06-26T01:30:34;17.60;;;6.93;;
5616;SDS011;2830;50.656;7.568;2023-06-26T01:33:06;18.37;;;6.90;;
5616;SDS011;2830;50.656;7.568;2023-06-26T01:35:33;19.77;;;7.97;;
5616;SDS011;2830;50.656;7.568;2023-06-26T01:38:15;18.57;;;8.17;;
5616;SDS011;2830;50.656;7.568;2023-06-26T01:40:44;17.00;;;6.53;;
5616;SDS011;2830;50.656;7.568;2023-06-26T01:43:15;17.13;;;7.00;;
5616;SDS011;2830;50.656;7.568;2023-06-26T01:46:06;18.03;;;6.60;;
5616;SDS011;2830;50.656;7.568;2023-06-26T01:48:55;19.00;;;5.97;;
5616;SDS011;2830;50.656;7.568;2023-06-26T01:51:27;23.27;;;7.83;;
5616;SDS011;2830;50.656;7.568;2023-06-26T01:54:01;18.00;;;7.03;;
5616;SDS011;2830;50.656;7.568;2023-06-26T01:56:30;17.27;;;6.43;;
5616;SDS011;2830;50.656;7.568;2023-06-26T01:58:57;19.27;;;7.40;;
5616;SDS011;2830;50.656;7.568;2023-06-26T02:01:25;18.60;;;6.40;;
5616;SDS011;2830;50.656;7.568;2023-06-26T02:03:52;18.53;;;6.60;;
5616;SDS011;2830;50.656;7.568;2023-06-26T02:06:19;20.07;;;7.23;;
5616;SDS011;2830;50.656;7.568;2023-06-26T02:08:46;20.37;;;7.10;;
5616;SDS011;2830;50.656;7.568;2023-06-26T02:11:12;19.23;;;6.97;;
5616;SDS011;2830;50.656;7.568;2023-06-26T02:13:39;20.50;;;6.97;;
5616;SDS011;2830;50.656;7.568;2023-06-26T02:16:06;19.90;;;7.43;;
5616;SDS011;2830;50.656;7.568;2023-06-26T02:18:32;19.63;;;7.30;;
5616;SDS011;2830;50.656;7.568;2023-06-26T02:20:59;17.30;;;6.30;;
5616;SDS011;2830;50.656;7.568;2023-06-26T02:23:26;18.17;;;6.47;;
5616;SDS011;2830;50.656;7.568;2023-06-26T02:25:53;17.70;;;6.50;;
5616;SDS011;2830;50.656;7.568;2023-06-26T02:28:19;19.13;;;7.30;;
5616;SDS011;2830;50.656;7.568;2023-06-26T02:30:46;20.30;;;7.50;;
5616;SDS011;2830;50.656;7.568;2023-06-26T02:33:13;20.90;;;6.60;;
5616;SDS011;2830;50.656;7.568;2023-06-26T02:35:39;18.33;;;6.60;;
5616;SDS011;2830;50.656;7.568;2023-06-26T02:38:06;23.90;;;7.37;;
5616;SDS011;2830;50.656;7.568;2023-06-26T02:40:33;18.00;;;6.60;;
5616;SDS011;2830;50.656;7.568;2023-06-26T02:42:59;20.30;;;6.77;;
5616;SDS011;2830;50.656;7.568;2023-06-26T02:45:26;16.97;;;6.20;;
5616;SDS011;2830;50.656;7.568;2023-06-26T02:47:53;20.00;;;6.83;;
5616;SDS011;2830;50.656;7.568;2023-06-26T02:50:19;17.63;;;5.70;;
5616;SDS011;2830;50.656;7.568;2023-06-26T02:52:46;17.63;;;6.07;;
5616;SDS011;2830;50.656;7.568;2023-06-26T02:55:16;27.40;;;6.70;;
5616;SDS011;2830;50.656;7.568;2023-06-26T02:57:44;18.37;;;6.07;;
5616;SDS011;2830;50.656;7.568;2023-06-26T03:00:11;19.23;;;5.90;;
5616;SDS011;2830;50.656;7.568;2023-06-26T03:02:39;23.70;;;6.53;;
5616;SDS011;2830;50.656;7.568;2023-06-26T03:05:06;19.90;;;6.53;;
5616;SDS011;2830;50.656;7.568;2023-06-26T03:07:32;18.53;;;7.20;;
5616;SDS011;2830;50.656;7.568;2023-06-26T03:09:59;18.20;;;6.47;;
5616;SDS011;2830;50.656;7.568;2023-06-26T03:12:26;21.70;;;6.87;;
5616;SDS011;2830;50.656;7.568;2023-06-26T03:14:53;19.23;;;6.53;;
5616;SDS011;2830;50.656;7.568;2023-06-26T03:17:19;17.30;;;6.20;;
5616;SDS011;2830;50.656;7.568;2023-06-26T03:19:46;17.87;;;6.90;;
5616;SDS011;2830;50.656;7.568;2023-06-26T03:22:13;17.87;;;7.03;;
5616;SDS011;2830;50.656;7.568;2023-06-26T03:24:40;19.73;;;6.77;;
5616;SDS011;2830;50.656;7.568;2023-06-26T03:27:06;20.07;;;6.80;;
5616;SDS011;2830;50.656;7.568;2023-06-26T03:29:35;19.83;;;6.67;;
5616;SDS011;2830;50.656;7.568;2023-06-26T03:32:19;18.80;;;6.80;;
5616;SDS011;2830;50.656;7.568;2023-06-26T03:34:46;18.03;;;6.40;;
5616;SDS011;2830;50.656;7.568;2023-06-26T03:37:13;21.17;;;6.10;;
5616;SDS011;2830;50.656;7.568;2023-06-26T03:39:40;18.90;;;6.27;;
5616;SDS011;2830;50.656;7.568;2023-06-26T03:42:07;17.30;;;6.83;;
5616;SDS011;2830;50.656;7.568;2023-06-26T03:44:33;16.77;;;6.60;;
5616;SDS011;2830;50.656;7.568;2023-06-26T03:47:00;19.03;;;7.30;;
5616;SDS011;2830;50.656;7.568;2023-06-26T03:49:27;18.83;;;6.60;;
5616;SDS011;2830;50.656;7.568;2023-06-26T03:51:53;16.40;;;6.43;;
5616;SDS011;2830;50.656;7.568;2023-06-26T03:54:20;22.93;;;6.97;;
5616;SDS011;2830;50.656;7.568;2023-06-26T03:56:47;21.17;;;7.00;;
5616;SDS011;2830;50.656;7.568;2023-06-26T03:59:14;17.60;;;6.90;;
5616;SDS011;2830;50.656;7.568;2023-06-26T04:01:40;18.27;;;6.37;;
5616;SDS011;2830;50.656;7.568;2023-06-26T04:04:07;17.07;;;7.10;;
5616;SDS011;2830;50.656;7.568;2023-06-26T04:06:34;24.60;;;8.00;;
5616;SDS011;2830;50.656;7.568;2023-06-26T04:09:01;19.27;;;7.43;;
5616;SDS011;2830;50.656;7.568;2023-06-26T04:11:28;18.23;;;6.30;;
5616;SDS011;2830;50.656;7.568;2023-06-26T04:13:55;18.47;;;6.97;;
5616;SDS011;2830;50.656;7.568;2023-06-26T04:16:22;20.93;;;6.70;;
5616;SDS011;2830;50.656;7.568;2023-06-26T04:18:51;18.07;;;6.60;;
5616;SDS011;2830;50.656;7.568;2023-06-26T04:21:19;23.37;;;7.37;;
5616;SDS011;2830;50.656;7.568;2023-06-26T04:23:46;22.10;;;7.20;;
5616;SDS011;2830;50.656;7.568;2023-06-26T04:26:13;21.53;;;8.20;;
5616;SDS011;2830;50.656;7.568;2023-06-26T04:28:41;20.20;;;6.83;;
5616;SDS011;2830;50.656;7.568;2023-06-26T04:31:08;21.50;;;7.77;;
5616;SDS011;2830;50.656;7.568;2023-06-26T04:33:36;20.50;;;7.17;;
5616;SDS011;2830;50.656;7.568;2023-06-26T04:36:06;18.87;;;7.20;;
5616;SDS011;2830;50.656;7.568;2023-06-26T04:38:33;20.13;;;6.20;;
5616;SDS011;2830;50.656;7.568;2023-06-26T04:41:00;20.57;;;7.20;;
5616;SDS011;2830;50.656;7.568;2023-06-26T04:43:27;18.17;;;6.00;;
5616;SDS011;2830;50.656;7.568;2023-06-26T04:46:02;22.97;;;7.37;;
5616;SDS011;2830;50.656;7.568;2023-06-26T04:48:29;21.13;;;6.40;;
5616;SDS011;2830;50.656;7.568;2023-06-26T04:50:57;19.80;;;7.30;;
5616;SDS011;2830;50.656;7.568;2023-06-26T04:53:25;19.73;;;7.83;;
5616;SDS011;2830;50.656;7.568;2023-06-26T04:55:52;22.10;;;6.90;;
5616;SDS011;2830;50.656;7.568;2023-06-26T04:58:27;21.50;;;7.53;;
5616;SDS011;2830;50.656;7.568;2023-06-26T05:00:53;26.07;;;8.00;;
5616;SDS011;2830;50.656;7.568;2023-06-26T05:03:32;19.17;;;6.27;;
5616;SDS011;2830;50.656;7.568;2023-06-26T05:05:58;18.73;;;7.23;;
5616;SDS011;2830;50.656;7.568;2023-06-26T05:08:31;20.90;;;7.80;;
5616;SDS011;2830;50.656;7.568;2023-06-26T05:10:57;20.37;;;7.77;;
5616;SDS011;2830;50.656;7.568;2023-06-26T05:16:22;20.43;;;6.80;;
5616;SDS011;2830;50.656;7.568;2023-06-26T05:18:49;20.90;;;7.27;;
5616;SDS011;2830;50.656;7.568;2023-06-26T05:21:15;21.50;;;6.73;;
5616;SDS011;2830;50.656;7.568;2023-06-26T05:23:56;19.00;;;5.70;;
5616;SDS011;2830;50.656;7.568;2023-06-26T05:26:23;22.80;;;6.87;;
5616;SDS011;2830;50.656;7.568;2023-06-26T05:28:51;21.70;;;5.83;;
5616;SDS011;2830;50.656;7.568;2023-06-26T05:31:18;18.47;;;6.13;;
5616;SDS011;2830;50.656;7.568;2023-06-26T05:33:45;21.70;;;7.07;;
5616;SDS011;2830;50.656;7.568;2023-06-26T05:36:13;21.03;;;6.60;;
5616;SDS011;2830;50.656;7.568;2023-06-26T05:38:42;22.13;;;5.80;;
5616;SDS011;2830;50.656;7.568;2023-06-26T05:43:47;20.93;;;6.80;;
5616;SDS011;2830;50.656;7.568;2023-06-26T05:46:14;20.43;;;6.10;;
5616;SDS011;2830;50.656;7.568;2023-06-26T05:48:40;18.20;;;5.90;;
5616;SDS011;2830;50.656;7.568;2023-06-26T05:51:08;17.80;;;5.80;;
5616;SDS011;2830;50.656;7.568;2023-06-26T05:53:35;19.03;;;5.80;;
5616;SDS011;2830;50.656;7.568;2023-06-26T05:56:02;22.80;;;6.80;;
5616;SDS011;2830;50.656;7.568;2023-06-26T05:58:28;18.73;;;7.00;;
5616;SDS011;2830;50.656;7.568;2023-06-26T06:00:56;18.60;;;6.43;;
5616;SDS011;2830;50.656;7.568;2023-06-26T06:03:23;18.70;;;5.90;;
5616;SDS011;2830;50.656;7.568;2023-06-26T06:05:58;17.50;;;5.43;;
5616;SDS011;2830;50.656;7.568;2023-06-26T06:08:25;21.80;;;5.80;;
5616;SDS011;2830;50.656;7.568;2023-06-26T06:10:52;17.43;;;5.80;;
5616;SDS011;2830;50.656;7.568;2023-06-26T06:13:19;16.87;;;5.50;;
5616;SDS011;2830;50.656;7.568;2023-06-26T06:15:46;18.00;;;5.67;;
5616;SDS011;2830;50.656;7.568;2023-06-26T06:18:13;17.63;;;6.20;;
5616;SDS011;2830;50.656;7.568;2023-06-26T06:20:40;17.73;;;5.73;;
5616;SDS011;2830;50.656;7.568;2023-06-26T06:23:07;17.30;;;4.90;;
5616;SDS011;2830;50.656;7.568;2023-06-26T06:25:34;17.57;;;5.70;;
5616;SDS011;2830;50.656;7.568;2023-06-26T06:28:00;19.70;;;5.77;;
5616;SDS011;2830;50.656;7.568;2023-06-26T06:30:27;21.17;;;5.20;;
5616;SDS011;2830;50.656;7.568;2023-06-26T06:33:01;17.80;;;5.23;;
5616;SDS011;2830;50.656;7.568;2023-06-26T06:35:31;18.03;;;5.67;;
5616;SDS011;2830;50.656;7.568;2023-06-26T06:37:58;23.83;;;4.80;;
5616;SDS011;2830;50.656;7.568;2023-06-26T06:40:24;21.80;;;5.30;;
5616;SDS011;2830;50.656;7.568;2023-06-26T06:42:52;16.10;;;4.80;;
5616;SDS011;2830;50.656;7.568;2023-06-26T06:45:18;18.37;;;5.40;;
5616;SDS011;2830;50.656;7.568;2023-06-26T06:47:45;18.90;;;5.60;;
5616;SDS011;2830;50.656;7.568;2023-06-26T06:50:12;21.13;;;5.30;;
5616;SDS011;2830;50.656;7.568;2023-06-26T06:52:41;18.93;;;5.70;;
5616;SDS011;2830;50.656;7.568;2023-06-26T06:55:09;19.47;;;5.63;;
5616;SDS011;2830;50.656;7.568;2023-06-26T06:57:37;17.00;;;4.97;;
5616;SDS011;2830;50.656;7.568;2023-06-26T07:00:06;18.00;;;6.10;;
5616;SDS011;2830;50.656;7.568;2023-06-26T07:02:35;22.03;;;5.97;;
5616;SDS011;2830;50.656;7.568;2023-06-26T07:05:03;21.27;;;5.40;;
5616;SDS011;2830;50.656;7.568;2023-06-26T07:07:31;18.60;;;6.13;;
5616;SDS011;2830;50.656;7.568;2023-06-26T07:10:03;18.00;;;4.17;;
5616;SDS011;2830;50.656;7.568;2023-06-26T07:12:31;21.63;;;4.93;;
5616;SDS011;2830;50.656;7.568;2023-06-26T07:15:03;72.47;;;6.67;;
5616;SDS011;2830;50.656;7.568;2023-06-26T07:17:32;19.57;;;4.90;;
5616;SDS011;2830;50.656;7.568;2023-06-26T07:20:00;17.63;;;4.87;;
5616;SDS011;2830;50.656;7.568;2023-06-26T07:22:30;20.40;;;5.50;;
5616;SDS011;2830;50.656;7.568;2023-06-26T07:24:57;18.60;;;4.67;;
5616;SDS011;2830;50.656;7.568;2023-06-26T07:27:24;18.13;;;4.67;;
5616;SDS011;2830;50.656;7.568;2023-06-26T07:29:51;21.30;;;5.53;;
5616;SDS011;2830;50.656;7.568;2023-06-26T07:32:18;24.50;;;5.23;;
5616;SDS011;2830;50.656;7.568;2023-06-26T07:34:45;19.90;;;4.60;;
5616;SDS011;2830;50.656;7.568;2023-06-26T07:37:11;23.50;;;4.43;;
5616;SDS011;2830;50.656;7.568;2023-06-26T07:39:38;23.33;;;5.83;;
5616;SDS011;2830;50.656;7.568;2023-06-26T07:42:05;18.20;;;4.90;;
5616;SDS011;2830;50.656;7.568;2023-06-26T07:44:32;20.67;;;4.43;;
5616;SDS011;2830;50.656;7.568;2023-06-26T07:46:58;17.97;;;4.60;;
5616;SDS011;2830;50.656;7.568;2023-06-26T07:49:25;16.17;;;4.27;;
5616;SDS011;2830;50.656;7.568;2023-06-26T07:51:52;20.87;;;5.03;;
5616;SDS011;2830;50.656;7.568;2023-06-26T07:54:19;21.57;;;5.57;;
5616;SDS011;2830;50.656;7.568;2023-06-26T07:56:59;19.57;;;5.73;;
5616;SDS011;2830;50.656;7.568;2023-06-26T07:59:27;18.63;;;5.10;;
5616;SDS011;2830;50.656;7.568;2023-06-26T08:01:55;17.83;;;4.30;;
5616;SDS011;2830;50.656;7.568;2023-06-26T08:04:25;21.03;;;5.53;;
5616;SDS011;2830;50.656;7.568;2023-06-26T08:06:54;18.27;;;5.30;;
5616;SDS011;2830;50.656;7.568;2023-06-26T08:09:22;18.93;;;4.87;;
5616;SDS011;2830;50.656;7.568;2023-06-26T08:11:50;21.77;;;4.70;;
5616;SDS011;2830;50.656;7.568;2023-06-26T08:14:17;18.20;;;4.70;;
5616;SDS011;2830;50.656;7.568;2023-06-26T08:16:45;20.80;;;4.60;;
5616;SDS011;2830;50.656;7.568;2023-06-26T08:19:12;24.07;;;4.27;;
5616;SDS011;2830;50.656;7.568;2023-06-26T08:21:40;19.77;;;4.83;;
5616;SDS011;2830;50.656;7.568;2023-06-26T08:24:07;22.73;;;6.50;;
5616;SDS011;2830;50.656;7.568;2023-06-26T08:26:34;19.93;;;5.67;;
5616;SDS011;2830;50.656;7.568;2023-06-26T08:29:01;21.00;;;4.50;;
5616;SDS011;2830;50.656;7.568;2023-06-26T08:31:37;24.47;;;6.87;;
5616;SDS011;2830;50.656;7.568;2023-06-26T08:34:05;24.03;;;5.50;;
5616;SDS011;2830;50.656;7.568;2023-06-26T08:36:32;23.43;;;5.00;;
5616;SDS011;2830;50.656;7.568;2023-06-26T08:38:59;21.93;;;7.47;;
5616;SDS011;2830;50.656;7.568;2023-06-26T08:41:25;20.23;;;4.80;;
5616;SDS011;2830;50.656;7.568;2023-06-26T08:43:52;23.10;;;6.27;;
5616;SDS011;2830;50.656;7.568;2023-06-26T08:46:19;30.63;;;5.70;;
5616;SDS011;2830;50.656;7.568;2023-06-26T08:48:53;22.47;;;5.77;;
5616;SDS011;2830;50.656;7.568;2023-06-26T08:51:23;21.33;;;4.60;;
5616;SDS011;2830;50.656;7.568;2023-06-26T08:53:58;21.13;;;5.57;;
5616;SDS011;2830;50.656;7.568;2023-06-26T08:56:36;22.57;;;4.40;;
5616;SDS011;2830;50.656;7.568;2023-06-26T08:59:05;24.60;;;5.60;;
5616;SDS011;2830;50.656;7.568;2023-06-26T09:01:33;21.37;;;5.37;;
5616;SDS011;2830;50.656;7.568;2023-06-26T09:04:00;17.90;;;4.10;;
5616;SDS011;2830;50.656;7.568;2023-06-26T09:06:28;20.10;;;4.67;;
5616;SDS011;2830;50.656;7.568;2023-06-26T09:08:54;22.33;;;4.73;;
5616;SDS011;2830;50.656;7.568;2023-06-26T09:11:26;22.63;;;4.20;;
5616;SDS011;2830;50.656;7.568;2023-06-26T09:13:53;17.27;;;3.83;;
5616;SDS011;2830;50.656;7.568;2023-06-26T09:16:25;24.03;;;3.90;;
5616;SDS011;2830;50.656;7.568;2023-06-26T09:18:56;18.20;;;4.00;;
5616;SDS011;2830;50.656;7.568;2023-06-26T09:21:23;16.20;;;3.90;;
5616;SDS011;2830;50.656;7.568;2023-06-26T09:23:50;16.97;;;3.80;;
5616;SDS011;2830;50.656;7.568;2023-06-26T09:26:19;16.80;;;3.73;;
5616;SDS011;2830;50.656;7.568;2023-06-26T09:28:47;22.40;;;3.63;;
5616;SDS011;2830;50.656;7.568;2023-06-26T09:31:15;19.33;;;4.20;;
5616;SDS011;2830;50.656;7.568;2023-06-26T09:34:02;20.30;;;4.33;;
5616;SDS011;2830;50.656;7.568;2023-06-26T09:36:30;21.63;;;4.07;;
5616;SDS011;2830;50.656;7.568;2023-06-26T09:39:03;18.47;;;4.53;;
5616;SDS011;2830;50.656;7.568;2023-06-26T09:41:30;19.40;;;5.13;;
5616;SDS011;2830;50.656;7.568;2023-06-26T09:43:58;23.00;;;4.37;;
5616;SDS011;2830;50.656;7.568;2023-06-26T09:46:28;18.47;;;4.13;;
5616;SDS011;2830;50.656;7.568;2023-06-26T09:49:03;25.93;;;4.30;;
5616;SDS011;2830;50.656;7.568;2023-06-26T09:51:38;18.67;;;4.30;;
5616;SDS011;2830;50.656;7.568;2023-06-26T09:54:06;20.77;;;4.20;;
5616;SDS011;2830;50.656;7.568;2023-06-26T09:56:33;23.37;;;4.73;;
5616;SDS011;2830;50.656;7.568;2023-06-26T09:59:01;23.30;;;3.80;;
5616;SDS011;2830;50.656;7.568;2023-06-26T10:01:30;19.50;;;3.97;;
5616;SDS011;2830;50.656;7.568;2023-06-26T10:03:58;18.40;;;3.47;;
5616;SDS011;2830;50.656;7.568;2023-06-26T10:06:41;16.90;;;3.33;;
5616;SDS011;2830;50.656;7.568;2023-06-26T10:09:17;19.20;;;4.70;;
5616;SDS011;2830;50.656;7.568;2023-06-26T10:11:55;19.07;;;3.73;;
5616;SDS011;2830;50.656;7.568;2023-06-26T10:14:26;20.60;;;3.57;;
5616;SDS011;2830;50.656;7.568;2023-06-26T10:16:55;19.67;;;3.13;;
5616;SDS011;2830;50.656;7.568;2023-06-26T10:19:27;23.03;;;3.80;;
5616;SDS011;2830;50.656;7.568;2023-06-26T10:22:01;19.93;;;3.73;;
5616;SDS011;2830;50.656;7.568;2023-06-26T10:24:29;17.70;;;3.33;;
5616;SDS011;2830;50.656;7.568;2023-06-26T10:27:04;19.50;;;3.30;;
5616;SDS011;2830;50.656;7.568;2023-06-26T10:29:39;21.40;;;3.40;;
5616;SDS011;2830;50.656;7.568;2023-06-26T10:32:10;19.50;;;3.20;;
5616;SDS011;2830;50.656;7.568;2023-06-26T10:34:39;15.63;;;3.03;;
5616;SDS011;2830;50.656;7.568;2023-06-26T10:37:06;16.50;;;3.10;;
5616;SDS011;2830;50.656;7.568;2023-06-26T10:39:53;17.10;;;3.90;;
5616;SDS011;2830;50.656;7.568;2023-06-26T10:42:35;20.00;;;3.53;;
5616;SDS011;2830;50.656;7.568;2023-06-26T10:45:16;19.30;;;4.00;;
5616;SDS011;2830;50.656;7.568;2023-06-26T10:47:46;26.13;;;4.33;;
5616;SDS011;2830;50.656;7.568;2023-06-26T10:50:18;17.17;;;2.87;;
5616;SDS011;2830;50.656;7.568;2023-06-26T10:53:06;19.77;;;3.60;;
5616;SDS011;2830;50.656;7.568;2023-06-26T10:55:41;18.67;;;2.93;;
5616;SDS011;2830;50.656;7.568;2023-06-26T11:03:59;17.03;;;2.53;;
5616;SDS011;2830;50.656;7.568;2023-06-26T11:06:28;16.83;;;2.60;;
5616;SDS011;2830;50.656;7.568;2023-06-26T11:09:06;19.70;;;2.57;;
5616;SDS011;2830;50.656;7.568;2023-06-26T11:14:21;18.33;;;3.73;;
5616;SDS011;2830;50.656;7.568;2023-06-26T11:16:49;15.70;;;2.70;;
5616;SDS011;2830;50.656;7.568;2023-06-26T11:19:19;20.30;;;3.60;;
5616;SDS011;2830;50.656;7.568;2023-06-26T11:21:47;17.87;;;2.80;;
5616;SDS011;2830;50.656;7.568;2023-06-26T11:24:16;20.50;;;2.60;;
5616;SDS011;2830;50.656;7.568;2023-06-26T11:26:43;16.83;;;2.80;;
5616;SDS011;2830;50.656;7.568;2023-06-26T11:29:11;18.13;;;3.20;;
5616;SDS011;2830;50.656;7.568;2023-06-26T11:31:38;15.20;;;2.07;;
5616;SDS011;2830;50.656;7.568;2023-06-26T11:34:07;16.40;;;2.23;;
5616;SDS011;2830;50.656;7.568;2023-06-26T11:36:40;17.33;;;2.30;;
5616;SDS011;2830;50.656;7.568;2023-06-26T11:39:09;15.87;;;2.60;;
5616;SDS011;2830;50.656;7.568;2023-06-26T11:41:36;18.77;;;2.33;;
5616;SDS011;2830;50.656;7.568;2023-06-26T11:44:05;13.97;;;1.80;;
5616;SDS011;2830;50.656;7.568;2023-06-26T11:46:38;14.63;;;2.20;;
5616;SDS011;2830;50.656;7.568;2023-06-26T11:49:05;16.47;;;2.40;;
5616;SDS011;2830;50.656;7.568;2023-06-26T11:51:34;16.93;;;2.03;;
5616;SDS011;2830;50.656;7.568;2023-06-26T11:54:02;16.00;;;2.10;;
5616;SDS011;2830;50.656;7.568;2023-06-26T11:56:30;17.60;;;2.50;;
5616;SDS011;2830;50.656;7.568;2023-06-26T12:01:37;13.10;;;1.50;;
5616;SDS011;2830;50.656;7.568;2023-06-26T12:04:06;15.37;;;2.50;;
5616;SDS011;2830;50.656;7.568;2023-06-26T12:06:35;17.33;;;2.43;;
5616;SDS011;2830;50.656;7.568;2023-06-26T12:09:07;18.20;;;2.60;;
5616;SDS011;2830;50.656;7.568;2023-06-26T12:11:37;14.57;;;2.50;;
5616;SDS011;2830;50.656;7.568;2023-06-26T12:14:07;21.57;;;2.80;;
5616;SDS011;2830;50.656;7.568;2023-06-26T12:16:35;17.30;;;2.30;;
5616;SDS011;2830;50.656;7.568;2023-06-26T12:19:03;22.00;;;2.87;;
5616;SDS011;2830;50.656;7.568;2023-06-26T12:24:04;16.03;;;2.10;;
5616;SDS011;2830;50.656;7.568;2023-06-26T12:26:32;14.73;;;1.80;;
5616;SDS011;2830;50.656;7.568;2023-06-26T12:31:30;14.90;;;1.83;;
5616;SDS011;2830;50.656;7.568;2023-06-26T12:33:57;15.67;;;2.03;;
5616;SDS011;2830;50.656;7.568;2023-06-26T12:36:24;14.13;;;1.83;;
5616;SDS011;2830;50.656;7.568;2023-06-26T12:38:54;18.73;;;1.90;;
5616;SDS011;2830;50.656;7.568;2023-06-26T12:41:23;14.63;;;1.80;;
5616;SDS011;2830;50.656;7.568;2023-06-26T12:43:55;19.03;;;2.17;;
5616;SDS011;2830;50.656;7.568;2023-06-26T12:46:33;16.60;;;2.57;;
5616;SDS011;2830;50.656;7.568;2023-06-26T12:49:01;15.43;;;1.77;;
5616;SDS011;2830;50.656;7.568;2023-06-26T12:51:37;16.00;;;2.80;;
5616;SDS011;2830;50.656;7.568;2023-06-26T12:54:04;14.87;;;1.97;;
5616;SDS011;2830;50.656;7.568;2023-06-26T12:56:30;18.17;;;2.17;;
5616;SDS011;2830;50.656;7.568;2023-06-26T12:58:57;16.67;;;2.13;;
5616;SDS011;2830;50.656;7.568;2023-06-26T13:01:24;16.67;;;1.90;;
5616;SDS011;2830;50.656;7.568;2023-06-26T13:03:51;16.27;;;2.40;;
5616;SDS011;2830;50.656;7.568;2023-06-26T13:06:18;16.53;;;2.27;;
5616;SDS011;2830;50.656;7.568;2023-06-26T13:08:45;16.40;;;2.33;;
5616;SDS011;2830;50.656;7.568;2023-06-26T13:11:12;19.90;;;2.13;;
5616;SDS011;2830;50.656;7.568;2023-06-26T13:13:38;17.50;;;2.30;;
5616;SDS011;2830;50.656;7.568;2023-06-26T13:16:05;15.90;;;2.03;;
5616;SDS011;2830;50.656;7.568;2023-06-26T13:18:32;19.90;;;4.47;;
5616;SDS011;2830;50.656;7.568;2023-06-26T13:20:58;20.53;;;3.50;;
5616;SDS011;2830;50.656;7.568;2023-06-26T13:23:25;15.93;;;1.90;;
5616;SDS011;2830;50.656;7.568;2023-06-26T13:25:52;17.23;;;2.50;;
5616;SDS011;2830;50.656;7.568;2023-06-26T13:28:19;20.63;;;2.03;;
5616;SDS011;2830;50.656;7.568;2023-06-26T13:30:46;16.80;;;2.20;;
5616;SDS011;2830;50.656;7.568;2023-06-26T13:33:12;18.13;;;2.30;;
5616;SDS011;2830;50.656;7.568;2023-06-26T13:35:39;17.23;;;2.40;;
5616;SDS011;2830;50.656;7.568;2023-06-26T13:38:06;16.90;;;2.27;;
5616;SDS011;2830;50.656;7.568;2023-06-26T13:40:33;18.70;;;2.43;;
5616;SDS011;2830;50.656;7.568;2023-06-26T13:42:59;16.67;;;2.27;;
5616;SDS011;2830;50.656;7.568;2023-06-26T13:45:26;14.70;;;1.87;;
5616;SDS011;2830;50.656;7.568;2023-06-26T13:47:57;17.03;;;2.40;;
5616;SDS011;2830;50.656;7.568;2023-06-26T13:50:24;23.83;;;2.70;;
5616;SDS011;2830;50.656;7.568;2023-06-26T13:52:50;20.20;;;2.93;;
5616;SDS011;2830;50.656;7.568;2023-06-26T13:55:17;15.53;;;1.70;;
5616;SDS011;2830;50.656;7.568;2023-06-26T13:57:44;13.47;;;1.53;;
5616;SDS011;2830;50.656;7.568;2023-06-26T14:00:11;15.83;;;2.40;;
5616;SDS011;2830;50.656;7.568;2023-06-26T14:02:39;17.33;;;2.97;;
5616;SDS011;2830;50.656;7.568;2023-06-26T14:05:06;16.57;;;2.23;;
5616;SDS011;2830;50.656;7.568;2023-06-26T14:07:33;17.20;;;2.40;;
5616;SDS011;2830;50.656;7.568;2023-06-26T14:10:00;17.23;;;2.23;;
5616;SDS011;2830;50.656;7.568;2023-06-26T14:12:27;16.70;;;2.33;;
5616;SDS011;2830;50.656;7.568;2023-06-26T14:14:54;16.80;;;2.47;;
5616;SDS011;2830;50.656;7.568;2023-06-26T14:17:21;18.93;;;2.50;;
5616;SDS011;2830;50.656;7.568;2023-06-26T14:19:50;17.83;;;1.90;;
5616;SDS011;2830;50.656;7.568;2023-06-26T14:22:20;42.97;;;4.70;;
5616;SDS011;2830;50.656;7.568;2023-06-26T14:24:48;19.03;;;3.23;;
5616;SDS011;2830;50.656;7.568;2023-06-26T14:27:15;16.37;;;1.93;;
5616;SDS011;2830;50.656;7.568;2023-06-26T14:29:42;22.10;;;2.27;;
5616;SDS011;2830;50.656;7.568;2023-06-26T14:32:08;18.37;;;2.23;;
5616;SDS011;2830;50.656;7.568;2023-06-26T14:34:37;18.13;;;2.30;;
5616;SDS011;2830;50.656;7.568;2023-06-26T14:37:05;17.67;;;2.30;;
5616;SDS011;2830;50.656;7.568;2023-06-26T14:39:32;15.73;;;2.30;;
5616;SDS011;2830;50.656;7.568;2023-06-26T14:41:59;19.47;;;2.70;;
5616;SDS011;2830;50.656;7.568;2023-06-26T14:44:26;19.50;;;2.33;;
5616;SDS011;2830;50.656;7.568;2023-06-26T14:46:53;18.90;;;3.20;;
5616;SDS011;2830;50.656;7.568;2023-06-26T14:49:20;16.63;;;1.97;;
5616;SDS011;2830;50.656;7.568;2023-06-26T14:51:47;19.07;;;2.17;;
5616;SDS011;2830;50.656;7.568;2023-06-26T14:54:14;17.70;;;1.93;;
5616;SDS011;2830;50.656;7.568;2023-06-26T14:56:41;15.90;;;2.03;;
5616;SDS011;2830;50.656;7.568;2023-06-26T14:59:10;14.57;;;1.60;;
5616;SDS011;2830;50.656;7.568;2023-06-26T15:01:37;20.47;;;2.00;;
5616;SDS011;2830;50.656;7.568;2023-06-26T15:04:05;15.37;;;2.33;;
5616;SDS011;2830;50.656;7.568;2023-06-26T15:06:32;15.83;;;1.80;;
5616;SDS011;2830;50.656;7.568;2023-06-26T15:08:59;16.97;;;2.47;;
5616;SDS011;2830;50.656;7.568;2023-06-26T15:11:28;19.43;;;2.53;;
5616;SDS011;2830;50.656;7.568;2023-06-26T15:13:55;17.87;;;2.20;;
5616;SDS011;2830;50.656;7.568;2023-06-26T15:16:24;16.00;;;1.93;;
5616;SDS011;2830;50.656;7.568;2023-06-26T15:18:50;18.77;;;2.00;;
5616;SDS011;2830;50.656;7.568;2023-06-26T15:21:17;25.70;;;2.47;;
5616;SDS011;2830;50.656;7.568;2023-06-26T15:23:45;19.17;;;2.30;;
5616;SDS011;2830;50.656;7.568;2023-06-26T15:26:13;19.13;;;2.20;;
5616;SDS011;2830;50.656;7.568;2023-06-26T15:28:42;22.20;;;2.30;;
5616;SDS011;2830;50.656;7.568;2023-06-26T15:31:09;18.13;;;2.00;;
5616;SDS011;2830;50.656;7.568;2023-06-26T15:33:36;20.10;;;2.03;;
5616;SDS011;2830;50.656;7.568;2023-06-26T15:36:02;17.13;;;1.80;;